sensor_id;sensor_type;location;lat;lon;timestamp;pressure;altitude;pressure_sealevel;temperature
16956;BMP180;8594;52.052;8.354;2023-05-16T00:01:56;100586.00;;;15.40
16956;BMP180;8594;52.052;8.354;2023-05-16T00:04:24;100582.00;;;15.20
16956;BMP180;8594;52.052;8.354;2023-05-16T00:06:52;100581.00;;;15.20
16956;BMP180;8594;52.052;8.354;2023-05-16T00:09:19;100588.00;;;15.20
16956;BMP180;8594;52.052;8.354;2023-05-16T00:11:46;100586.00;;;15.20
16956;BMP180;8594;52.052;8.354;2023-05-16T00:14:15;100588.00;;;15.00
16956;BMP180;8594;52.052;8.354;2023-05-16T00:16:41;100586.00;;;14.90
16956;BMP180;8594;52.052;8.354;2023-05-16T00:19:08;100583.00;;;14.30
16956;BMP180;8594;52.052;8.354;2023-05-16T00:21:36;100588.00;;;15.00
16956;BMP180;8594;52.052;8.354;2023-05-16T00:24:04;100582.00;;;15.10
16956;BMP180;8594;52.052;8.354;2023-05-16T00:26:31;100582.00;;;14.60
16956;BMP180;8594;52.052;8.354;2023-05-16T00:28:58;100589.00;;;14.40
16956;BMP180;8594;52.052;8.354;2023-05-16T00:31:25;100590.00;;;14.40
16956;BMP180;8594;52.052;8.354;2023-05-16T00:33:52;100587.00;;;14.40
16956;BMP180;8594;52.052;8.354;2023-05-16T00:36:19;100589.00;;;14.30
16956;BMP180;8594;52.052;8.354;2023-05-16T00:38:47;100590.00;;;14.10
16956;BMP180;8594;52.052;8.354;2023-05-16T00:41:15;100597.00;;;14.70
16956;BMP180;8594;52.052;8.354;2023-05-16T00:43:42;100595.00;;;14.50
16956;BMP180;8594;52.052;8.354;2023-05-16T00:46:09;100592.00;;;14.30
16956;BMP180;8594;52.052;8.354;2023-05-16T00:48:36;100589.00;;;14.50
16956;BMP180;8594;52.052;8.354;2023-05-16T00:51:03;100582.00;;;14.50
16956;BMP180;8594;52.052;8.354;2023-05-16T00:53:34;100591.00;;;14.20
16956;BMP180;8594;52.052;8.354;2023-05-16T00:56:04;100576.00;;;14.40
16956;BMP180;8594;52.052;8.354;2023-05-16T00:58:31;100579.00;;;14.60
16956;BMP180;8594;52.052;8.354;2023-05-16T01:00:59;100580.00;;;13.90
16956;BMP180;8594;52.052;8.354;2023-05-16T01:03:27;100577.00;;;14.50
16956;BMP180;8594;52.052;8.354;2023-05-16T01:05:54;100586.00;;;14.90
16956;BMP180;8594;52.052;8.354;2023-05-16T01:08:21;100583.00;;;14.30
16956;BMP180;8594;52.052;8.354;2023-05-16T01:10:59;100583.00;;;14.30
16956;BMP180;8594;52.052;8.354;2023-05-16T01:13:40;100590.00;;;14.40
16956;BMP180;8594;52.052;8.354;2023-05-16T01:16:18;100586.00;;;14.60
16956;BMP180;8594;52.052;8.354;2023-05-16T01:18:56;100591.00;;;15.00
16956;BMP180;8594;52.052;8.354;2023-05-16T01:21:41;100590.00;;;14.80
16956;BMP180;8594;52.052;8.354;2023-05-16T01:24:16;100587.00;;;14.70
16956;BMP180;8594;52.052;8.354;2023-05-16T01:26:50;100586.00;;;14.10
16956;BMP180;8594;52.052;8.354;2023-05-16T01:29:18;100591.00;;;14.50
16956;BMP180;8594;52.052;8.354;2023-05-16T01:31:45;100583.00;;;14.30
16956;BMP180;8594;52.052;8.354;2023-05-16T01:34:12;100588.00;;;14.20
16956;BMP180;8594;52.052;8.354;2023-05-16T01:36:47;100578.00;;;14.20
16956;BMP180;8594;52.052;8.354;2023-05-16T01:39:26;100593.00;;;14.10
16956;BMP180;8594;52.052;8.354;2023-05-16T01:42:03;100599.00;;;14.20
16956;BMP180;8594;52.052;8.354;2023-05-16T01:44:35;100605.00;;;13.40
16956;BMP180;8594;52.052;8.354;2023-05-16T01:47:11;100624.00;;;12.90
16956;BMP180;8594;52.052;8.354;2023-05-16T01:49:44;100618.00;;;13.10
16956;BMP180;8594;52.052;8.354;2023-05-16T01:52:18;100610.00;;;13.30
16956;BMP180;8594;52.052;8.354;2023-05-16T01:54:50;100618.00;;;13.40
16956;BMP180;8594;52.052;8.354;2023-05-16T01:57:25;100618.00;;;12.60
16956;BMP180;8594;52.052;8.354;2023-05-16T01:59:52;100622.00;;;12.70
16956;BMP180;8594;52.052;8.354;2023-05-16T02:02:19;100627.00;;;13.20
16956;BMP180;8594;52.052;8.354;2023-05-16T02:04:46;100626.00;;;13.00
16956;BMP180;8594;52.052;8.354;2023-05-16T02:07:13;100633.00;;;12.70
16956;BMP180;8594;52.052;8.354;2023-05-16T02:09:40;100638.00;;;12.60
16956;BMP180;8594;52.052;8.354;2023-05-16T02:12:07;100627.00;;;13.10
16956;BMP180;8594;52.052;8.354;2023-05-16T02:14:35;100627.00;;;12.80
16956;BMP180;8594;52.052;8.354;2023-05-16T02:17:02;100632.00;;;12.80
16956;BMP180;8594;52.052;8.354;2023-05-16T02:19:29;100637.00;;;12.90
16956;BMP180;8594;52.052;8.354;2023-05-16T02:21:56;100635.00;;;12.70
16956;BMP180;8594;52.052;8.354;2023-05-16T02:24:22;100631.00;;;12.70
16956;BMP180;8594;52.052;8.354;2023-05-16T02:26:49;100637.00;;;12.60
16956;BMP180;8594;52.052;8.354;2023-05-16T02:29:16;100633.00;;;12.50
16956;BMP180;8594;52.052;8.354;2023-05-16T02:31:44;100639.00;;;12.80
16956;BMP180;8594;52.052;8.354;2023-05-16T02:34:11;100637.00;;;12.90
16956;BMP180;8594;52.052;8.354;2023-05-16T02:36:38;100636.00;;;12.80
16956;BMP180;8594;52.052;8.354;2023-05-16T02:39:05;100635.00;;;13.00
16956;BMP180;8594;52.052;8.354;2023-05-16T02:41:34;100631.00;;;12.40
16956;BMP180;8594;52.052;8.354;2023-05-16T02:44:01;100635.00;;;12.40
16956;BMP180;8594;52.052;8.354;2023-05-16T02:46:30;100637.00;;;12.50
16956;BMP180;8594;52.052;8.354;2023-05-16T02:48:58;100646.00;;;12.70
16956;BMP180;8594;52.052;8.354;2023-05-16T02:51:27;100643.00;;;12.90
16956;BMP180;8594;52.052;8.354;2023-05-16T02:53:54;100642.00;;;12.60
16956;BMP180;8594;52.052;8.354;2023-05-16T02:56:24;100650.00;;;12.90
16956;BMP180;8594;52.052;8.354;2023-05-16T02:58:52;100655.00;;;12.40
16956;BMP180;8594;52.052;8.354;2023-05-16T03:01:20;100657.00;;;12.90
16956;BMP180;8594;52.052;8.354;2023-05-16T03:03:46;100656.00;;;12.80
16956;BMP180;8594;52.052;8.354;2023-05-16T03:06:14;100669.00;;;12.80
16956;BMP180;8594;52.052;8.354;2023-05-16T03:08:41;100667.00;;;13.20
16956;BMP180;8594;52.052;8.354;2023-05-16T03:11:08;100672.00;;;13.30
16956;BMP180;8594;52.052;8.354;2023-05-16T03:13:35;100670.00;;;13.40
16956;BMP180;8594;52.052;8.354;2023-05-16T03:16:01;100675.00;;;13.60
16956;BMP180;8594;52.052;8.354;2023-05-16T03:18:28;100673.00;;;13.80
16956;BMP180;8594;52.052;8.354;2023-05-16T03:20:55;100677.00;;;13.30
16956;BMP180;8594;52.052;8.354;2023-05-16T03:23:24;100690.00;;;13.40
16956;BMP180;8594;52.052;8.354;2023-05-16T03:25:51;100681.00;;;13.10
16956;BMP180;8594;52.052;8.354;2023-05-16T03:28:18;100681.00;;;13.40
16956;BMP180;8594;52.052;8.354;2023-05-16T03:30:45;100691.00;;;13.80
16956;BMP180;8594;52.052;8.354;2023-05-16T03:33:12;100686.00;;;13.30
16956;BMP180;8594;52.052;8.354;2023-05-16T03:35:39;100696.00;;;13.30
16956;BMP180;8594;52.052;8.354;2023-05-16T03:38:06;100699.00;;;13.30
16956;BMP180;8594;52.052;8.354;2023-05-16T03:40:34;100701.00;;;13.00
16956;BMP180;8594;52.052;8.354;2023-05-16T03:43:01;100702.00;;;13.30
16956;BMP180;8594;52.052;8.354;2023-05-16T03:45:29;100698.00;;;13.00
16956;BMP180;8594;52.052;8.354;2023-05-16T03:47:56;100709.00;;;12.50
16956;BMP180;8594;52.052;8.354;2023-05-16T03:50:23;100706.00;;;12.00
16956;BMP180;8594;52.052;8.354;2023-05-16T03:52:50;100717.00;;;12.30
16956;BMP180;8594;52.052;8.354;2023-05-16T03:55:18;100716.00;;;12.00
16956;BMP180;8594;52.052;8.354;2023-05-16T03:57:46;100725.00;;;12.30
16956;BMP180;8594;52.052;8.354;2023-05-16T04:00:15;100723.00;;;11.90
16956;BMP180;8594;52.052;8.354;2023-05-16T04:02:42;100720.00;;;11.90
16956;BMP180;8594;52.052;8.354;2023-05-16T04:05:10;100720.00;;;11.90
16956;BMP180;8594;52.052;8.354;2023-05-16T04:07:38;100724.00;;;12.20
16956;BMP180;8594;52.052;8.354;2023-05-16T04:10:06;100734.00;;;12.50
16956;BMP180;8594;52.052;8.354;2023-05-16T04:12:33;100736.00;;;12.40
16956;BMP180;8594;52.052;8.354;2023-05-16T04:15:01;100745.00;;;12.80
16956;BMP180;8594;52.052;8.354;2023-05-16T04:17:28;100737.00;;;11.90
16956;BMP180;8594;52.052;8.354;2023-05-16T04:19:55;100745.00;;;12.20
16956;BMP180;8594;52.052;8.354;2023-05-16T04:22:22;100739.00;;;12.00
16956;BMP180;8594;52.052;8.354;2023-05-16T04:24:49;100753.00;;;12.00
16956;BMP180;8594;52.052;8.354;2023-05-16T04:27:16;100740.00;;;11.90
16956;BMP180;8594;52.052;8.354;2023-05-16T04:29:43;100751.00;;;12.00
16956;BMP180;8594;52.052;8.354;2023-05-16T04:32:11;100765.00;;;11.90
16956;BMP180;8594;52.052;8.354;2023-05-16T04:34:38;100765.00;;;12.80
16956;BMP180;8594;52.052;8.354;2023-05-16T04:37:05;100766.00;;;12.20
16956;BMP180;8594;52.052;8.354;2023-05-16T04:39:33;100767.00;;;12.30
16956;BMP180;8594;52.052;8.354;2023-05-16T04:42:00;100766.00;;;12.30
16956;BMP180;8594;52.052;8.354;2023-05-16T04:44:27;100771.00;;;12.80
16956;BMP180;8594;52.052;8.354;2023-05-16T04:46:54;100779.00;;;12.50
16956;BMP180;8594;52.052;8.354;2023-05-16T04:49:22;100783.00;;;12.60
16956;BMP180;8594;52.052;8.354;2023-05-16T04:51:49;100791.00;;;12.60
16956;BMP180;8594;52.052;8.354;2023-05-16T04:54:16;100786.00;;;12.80
16956;BMP180;8594;52.052;8.354;2023-05-16T04:56:43;100797.00;;;12.30
16956;BMP180;8594;52.052;8.354;2023-05-16T04:59:09;100794.00;;;12.10
16956;BMP180;8594;52.052;8.354;2023-05-16T05:01:36;100800.00;;;12.20
16956;BMP180;8594;52.052;8.354;2023-05-16T05:04:04;100807.00;;;12.60
16956;BMP180;8594;52.052;8.354;2023-05-16T05:06:32;100811.00;;;12.60
16956;BMP180;8594;52.052;8.354;2023-05-16T05:08:59;100804.00;;;12.30
16956;BMP180;8594;52.052;8.354;2023-05-16T05:11:26;100813.00;;;12.60
16956;BMP180;8594;52.052;8.354;2023-05-16T05:13:52;100803.00;;;12.20
16956;BMP180;8594;52.052;8.354;2023-05-16T05:16:19;100807.00;;;12.80
16956;BMP180;8594;52.052;8.354;2023-05-16T05:18:46;100809.00;;;12.80
16956;BMP180;8594;52.052;8.354;2023-05-16T05:21:13;100814.00;;;13.40
16956;BMP180;8594;52.052;8.354;2023-05-16T05:23:41;100814.00;;;13.60
16956;BMP180;8594;52.052;8.354;2023-05-16T05:26:08;100818.00;;;14.10
16956;BMP180;8594;52.052;8.354;2023-05-16T05:28:35;100817.00;;;14.00
16956;BMP180;8594;52.052;8.354;2023-05-16T05:31:03;100817.00;;;14.50
16956;BMP180;8594;52.052;8.354;2023-05-16T05:33:30;100824.00;;;15.00
16956;BMP180;8594;52.052;8.354;2023-05-16T05:35:57;100826.00;;;15.50
16956;BMP180;8594;52.052;8.354;2023-05-16T05:38:24;100829.00;;;15.60
16956;BMP180;8594;52.052;8.354;2023-05-16T05:40:52;100832.00;;;15.70
16956;BMP180;8594;52.052;8.354;2023-05-16T05:43:19;100834.00;;;16.10
16956;BMP180;8594;52.052;8.354;2023-05-16T05:45:46;100827.00;;;16.10
16956;BMP180;8594;52.052;8.354;2023-05-16T05:48:13;100837.00;;;16.60
16956;BMP180;8594;52.052;8.354;2023-05-16T05:50:40;100837.00;;;16.50
16956;BMP180;8594;52.052;8.354;2023-05-16T05:53:07;100832.00;;;17.50
16956;BMP180;8594;52.052;8.354;2023-05-16T05:55:33;100853.00;;;17.30
16956;BMP180;8594;52.052;8.354;2023-05-16T05:58:01;100837.00;;;17.80
16956;BMP180;8594;52.052;8.354;2023-05-16T06:00:28;100855.00;;;16.80
16956;BMP180;8594;52.052;8.354;2023-05-16T06:02:55;100854.00;;;17.50
16956;BMP180;8594;52.052;8.354;2023-05-16T06:05:22;100861.00;;;17.30
16956;BMP180;8594;52.052;8.354;2023-05-16T06:07:49;100861.00;;;17.10
16956;BMP180;8594;52.052;8.354;2023-05-16T06:10:16;100849.00;;;16.60
16956;BMP180;8594;52.052;8.354;2023-05-16T06:12:43;100867.00;;;16.50
16956;BMP180;8594;52.052;8.354;2023-05-16T06:15:11;100867.00;;;16.80
16956;BMP180;8594;52.052;8.354;2023-05-16T06:17:38;100865.00;;;17.20
16956;BMP180;8594;52.052;8.354;2023-05-16T06:20:06;100872.00;;;17.90
16956;BMP180;8594;52.052;8.354;2023-05-16T06:22:33;100866.00;;;16.70
16956;BMP180;8594;52.052;8.354;2023-05-16T06:25:00;100863.00;;;17.40
16956;BMP180;8594;52.052;8.354;2023-05-16T06:27:27;100884.00;;;18.10
16956;BMP180;8594;52.052;8.354;2023-05-16T06:29:54;100872.00;;;17.10
16956;BMP180;8594;52.052;8.354;2023-05-16T06:32:23;100880.00;;;16.20
16956;BMP180;8594;52.052;8.354;2023-05-16T06:34:51;100869.00;;;16.90
16956;BMP180;8594;52.052;8.354;2023-05-16T06:37:18;100883.00;;;16.70
16956;BMP180;8594;52.052;8.354;2023-05-16T06:39:45;100887.00;;;17.70
16956;BMP180;8594;52.052;8.354;2023-05-16T06:42:11;100879.00;;;16.60
16956;BMP180;8594;52.052;8.354;2023-05-16T06:44:40;100891.00;;;17.20
16956;BMP180;8594;52.052;8.354;2023-05-16T06:47:07;100884.00;;;18.20
16956;BMP180;8594;52.052;8.354;2023-05-16T06:49:35;100899.00;;;17.60
16956;BMP180;8594;52.052;8.354;2023-05-16T06:52:02;100911.00;;;17.00
16956;BMP180;8594;52.052;8.354;2023-05-16T06:54:29;100905.00;;;16.60
16956;BMP180;8594;52.052;8.354;2023-05-16T06:56:57;100895.00;;;16.70
16956;BMP180;8594;52.052;8.354;2023-05-16T06:59:23;100892.00;;;17.10
16956;BMP180;8594;52.052;8.354;2023-05-16T07:01:50;100911.00;;;17.30
16956;BMP180;8594;52.052;8.354;2023-05-16T07:04:17;100908.00;;;17.20
16956;BMP180;8594;52.052;8.354;2023-05-16T07:06:45;100908.00;;;17.00
16956;BMP180;8594;52.052;8.354;2023-05-16T07:09:12;100908.00;;;16.20
16956;BMP180;8594;52.052;8.354;2023-05-16T07:11:38;100900.00;;;16.20
16956;BMP180;8594;52.052;8.354;2023-05-16T07:14:05;100901.00;;;17.20
16956;BMP180;8594;52.052;8.354;2023-05-16T07:16:32;100905.00;;;18.00
16956;BMP180;8594;52.052;8.354;2023-05-16T07:18:59;100919.00;;;17.60
16956;BMP180;8594;52.052;8.354;2023-05-16T07:21:26;100915.00;;;18.10
16956;BMP180;8594;52.052;8.354;2023-05-16T07:23:55;100914.00;;;17.10
16956;BMP180;8594;52.052;8.354;2023-05-16T07:26:22;100918.00;;;16.60
16956;BMP180;8594;52.052;8.354;2023-05-16T07:28:49;100926.00;;;16.50
16956;BMP180;8594;52.052;8.354;2023-05-16T07:31:16;100921.00;;;16.50
16956;BMP180;8594;52.052;8.354;2023-05-16T07:33:44;100911.00;;;17.10
16956;BMP180;8594;52.052;8.354;2023-05-16T07:36:11;100915.00;;;17.10
16956;BMP180;8594;52.052;8.354;2023-05-16T07:38:38;100918.00;;;17.80
16956;BMP180;8594;52.052;8.354;2023-05-16T07:41:06;100916.00;;;19.50
16956;BMP180;8594;52.052;8.354;2023-05-16T07:43:33;100920.00;;;19.50
16956;BMP180;8594;52.052;8.354;2023-05-16T07:46:00;100936.00;;;19.40
16956;BMP180;8594;52.052;8.354;2023-05-16T07:48:27;100925.00;;;20.80
16956;BMP180;8594;52.052;8.354;2023-05-16T07:50:54;100930.00;;;20.60
16956;BMP180;8594;52.052;8.354;2023-05-16T07:53:21;100934.00;;;19.50
16956;BMP180;8594;52.052;8.354;2023-05-16T07:55:48;100934.00;;;19.00
16956;BMP180;8594;52.052;8.354;2023-05-16T07:58:16;100925.00;;;18.70
16956;BMP180;8594;52.052;8.354;2023-05-16T08:00:43;100930.00;;;17.70
16956;BMP180;8594;52.052;8.354;2023-05-16T08:03:10;100940.00;;;17.00
16956;BMP180;8594;52.052;8.354;2023-05-16T08:05:37;100930.00;;;16.00
16956;BMP180;8594;52.052;8.354;2023-05-16T08:08:04;100928.00;;;17.20
16956;BMP180;8594;52.052;8.354;2023-05-16T08:10:31;100938.00;;;17.20
16956;BMP180;8594;52.052;8.354;2023-05-16T08:12:58;100915.00;;;17.20
16956;BMP180;8594;52.052;8.354;2023-05-16T08:15:27;100918.00;;;18.30
16956;BMP180;8594;52.052;8.354;2023-05-16T08:17:56;100931.00;;;17.60
16956;BMP180;8594;52.052;8.354;2023-05-16T08:20:23;100940.00;;;17.80
16956;BMP180;8594;52.052;8.354;2023-05-16T08:22:50;100940.00;;;17.70
16956;BMP180;8594;52.052;8.354;2023-05-16T08:25:17;100937.00;;;17.80
16956;BMP180;8594;52.052;8.354;2023-05-16T08:27:44;100945.00;;;18.10
16956;BMP180;8594;52.052;8.354;2023-05-16T08:30:12;100948.00;;;17.90
16956;BMP180;8594;52.052;8.354;2023-05-16T08:32:40;100945.00;;;17.80
16956;BMP180;8594;52.052;8.354;2023-05-16T08:35:08;100948.00;;;16.60
16956;BMP180;8594;52.052;8.354;2023-05-16T08:37:35;100946.00;;;15.90
16956;BMP180;8594;52.052;8.354;2023-05-16T08:40:05;100948.00;;;17.40
16956;BMP180;8594;52.052;8.354;2023-05-16T08:42:33;100938.00;;;17.10
16956;BMP180;8594;52.052;8.354;2023-05-16T08:45:00;100942.00;;;17.90
16956;BMP180;8594;52.052;8.354;2023-05-16T08:47:30;100938.00;;;17.40
16956;BMP180;8594;52.052;8.354;2023-05-16T08:50:02;100933.00;;;17.30
16956;BMP180;8594;52.052;8.354;2023-05-16T08:52:31;100920.00;;;17.60
16956;BMP180;8594;52.052;8.354;2023-05-16T08:55:02;100924.00;;;17.60
16956;BMP180;8594;52.052;8.354;2023-05-16T08:57:31;100924.00;;;18.60
16956;BMP180;8594;52.052;8.354;2023-05-16T08:59:59;100929.00;;;18.80
16956;BMP180;8594;52.052;8.354;2023-05-16T09:02:26;100936.00;;;17.40
16956;BMP180;8594;52.052;8.354;2023-05-16T09:04:55;100948.00;;;17.60
16956;BMP180;8594;52.052;8.354;2023-05-16T09:07:24;100941.00;;;17.30
16956;BMP180;8594;52.052;8.354;2023-05-16T09:09:51;100951.00;;;17.30
16956;BMP180;8594;52.052;8.354;2023-05-16T09:12:19;100933.00;;;17.30
16956;BMP180;8594;52.052;8.354;2023-05-16T09:14:46;100927.00;;;18.20
16956;BMP180;8594;52.052;8.354;2023-05-16T09:17:13;100934.00;;;18.50
16956;BMP180;8594;52.052;8.354;2023-05-16T09:19:42;100933.00;;;18.30
16956;BMP180;8594;52.052;8.354;2023-05-16T09:22:12;100933.00;;;18.90
16956;BMP180;8594;52.052;8.354;2023-05-16T09:24:41;100948.00;;;17.80
16956;BMP180;8594;52.052;8.354;2023-05-16T09:27:09;100947.00;;;18.10
16956;BMP180;8594;52.052;8.354;2023-05-16T09:29:39;100937.00;;;18.20
16956;BMP180;8594;52.052;8.354;2023-05-16T09:32:12;100946.00;;;17.30
16956;BMP180;8594;52.052;8.354;2023-05-16T09:34:43;100947.00;;;17.70
16956;BMP180;8594;52.052;8.354;2023-05-16T09:37:10;100936.00;;;18.40
16956;BMP180;8594;52.052;8.354;2023-05-16T09:39:44;100934.00;;;18.70
16956;BMP180;8594;52.052;8.354;2023-05-16T09:42:12;100934.00;;;19.00
16956;BMP180;8594;52.052;8.354;2023-05-16T09:44:40;100931.00;;;18.50
16956;BMP180;8594;52.052;8.354;2023-05-16T09:47:07;100927.00;;;19.50
16956;BMP180;8594;52.052;8.354;2023-05-16T09:49:36;100931.00;;;18.60
16956;BMP180;8594;52.052;8.354;2023-05-16T09:52:04;100935.00;;;18.10
16956;BMP180;8594;52.052;8.354;2023-05-16T09:54:32;100930.00;;;18.30
16956;BMP180;8594;52.052;8.354;2023-05-16T09:57:01;100940.00;;;18.90
16956;BMP180;8594;52.052;8.354;2023-05-16T09:59:29;100943.00;;;18.50
16956;BMP180;8594;52.052;8.354;2023-05-16T10:01:57;100938.00;;;18.20
16956;BMP180;8594;52.052;8.354;2023-05-16T10:04:25;100937.00;;;18.50
16956;BMP180;8594;52.052;8.354;2023-05-16T10:06:54;100941.00;;;18.60
16956;BMP180;8594;52.052;8.354;2023-05-16T10:09:22;100938.00;;;18.70
16956;BMP180;8594;52.052;8.354;2023-05-16T10:11:51;100947.00;;;19.00
16956;BMP180;8594;52.052;8.354;2023-05-16T10:14:21;100951.00;;;19.20
16956;BMP180;8594;52.052;8.354;2023-05-16T10:16:49;100943.00;;;19.00
16956;BMP180;8594;52.052;8.354;2023-05-16T10:19:20;100941.00;;;19.80
16956;BMP180;8594;52.052;8.354;2023-05-16T10:21:53;100936.00;;;20.40
16956;BMP180;8594;52.052;8.354;2023-05-16T10:24:30;100933.00;;;20.30
16956;BMP180;8594;52.052;8.354;2023-05-16T10:26:59;100933.00;;;20.20
16956;BMP180;8594;52.052;8.354;2023-05-16T10:29:29;100926.00;;;19.80
16956;BMP180;8594;52.052;8.354;2023-05-16T10:31:59;100922.00;;;21.10
16956;BMP180;8594;52.052;8.354;2023-05-16T10:34:26;100932.00;;;20.60
16956;BMP180;8594;52.052;8.354;2023-05-16T10:36:53;100931.00;;;19.80
16956;BMP180;8594;52.052;8.354;2023-05-16T10:39:21;100940.00;;;18.90
16956;BMP180;8594;52.052;8.354;2023-05-16T10:41:48;100927.00;;;17.40
16956;BMP180;8594;52.052;8.354;2023-05-16T10:44:16;100930.00;;;17.90
16956;BMP180;8594;52.052;8.354;2023-05-16T10:46:46;100934.00;;;18.30
16956;BMP180;8594;52.052;8.354;2023-05-16T10:49:20;100928.00;;;17.90
16956;BMP180;8594;52.052;8.354;2023-05-16T10:52:03;100935.00;;;17.90
16956;BMP180;8594;52.052;8.354;2023-05-16T10:54:38;100928.00;;;19.10
16956;BMP180;8594;52.052;8.354;2023-05-16T10:57:09;100934.00;;;19.60
16956;BMP180;8594;52.052;8.354;2023-05-16T10:59:42;100933.00;;;19.10
16956;BMP180;8594;52.052;8.354;2023-05-16T11:02:26;100935.00;;;19.10
16956;BMP180;8594;52.052;8.354;2023-05-16T11:04:55;100916.00;;;18.20
16956;BMP180;8594;52.052;8.354;2023-05-16T11:07:25;100928.00;;;19.40
16956;BMP180;8594;52.052;8.354;2023-05-16T11:10:05;100930.00;;;19.90
16956;BMP180;8594;52.052;8.354;2023-05-16T11:12:41;100932.00;;;18.90
16956;BMP180;8594;52.052;8.354;2023-05-16T11:15:22;100931.00;;;18.30
16956;BMP180;8594;52.052;8.354;2023-05-16T11:18:02;100941.00;;;18.10
16956;BMP180;8594;52.052;8.354;2023-05-16T11:20:32;100932.00;;;19.80
16956;BMP180;8594;52.052;8.354;2023-05-16T11:23:20;100935.00;;;20.00
16956;BMP180;8594;52.052;8.354;2023-05-16T11:25:50;100939.00;;;20.20
16956;BMP180;8594;52.052;8.354;2023-05-16T11:28:19;100923.00;;;20.00
16956;BMP180;8594;52.052;8.354;2023-05-16T11:30:49;100928.00;;;21.00
16956;BMP180;8594;52.052;8.354;2023-05-16T11:33:18;100934.00;;;20.10
16956;BMP180;8594;52.052;8.354;2023-05-16T11:36:00;100928.00;;;19.30
16956;BMP180;8594;52.052;8.354;2023-05-16T11:38:29;100938.00;;;18.60
16956;BMP180;8594;52.052;8.354;2023-05-16T11:41:05;100926.00;;;17.50
16956;BMP180;8594;52.052;8.354;2023-05-16T11:43:41;100935.00;;;19.40
16956;BMP180;8594;52.052;8.354;2023-05-16T11:46:10;100944.00;;;19.10
16956;BMP180;8594;52.052;8.354;2023-05-16T11:48:39;100938.00;;;19.00
16956;BMP180;8594;52.052;8.354;2023-05-16T11:51:07;100949.00;;;18.90
16956;BMP180;8594;52.052;8.354;2023-05-16T11:53:35;100946.00;;;18.70
16956;BMP180;8594;52.052;8.354;2023-05-16T11:56:02;100950.00;;;18.80
16956;BMP180;8594;52.052;8.354;2023-05-16T11:58:30;100960.00;;;19.00
16956;BMP180;8594;52.052;8.354;2023-05-16T12:00:57;100954.00;;;18.80
16956;BMP180;8594;52.052;8.354;2023-05-16T12:03:24;100937.00;;;18.70
16956;BMP180;8594;52.052;8.354;2023-05-16T12:05:54;100937.00;;;19.00
16956;BMP180;8594;52.052;8.354;2023-05-16T12:08:22;100943.00;;;19.80
16956;BMP180;8594;52.052;8.354;2023-05-16T12:10:51;100935.00;;;19.40
16956;BMP180;8594;52.052;8.354;2023-05-16T12:13:20;100937.00;;;19.20
16956;BMP180;8594;52.052;8.354;2023-05-16T12:15:49;100933.00;;;19.40
16956;BMP180;8594;52.052;8.354;2023-05-16T12:18:17;100943.00;;;19.30
16956;BMP180;8594;52.052;8.354;2023-05-16T12:20:45;100938.00;;;18.70
16956;BMP180;8594;52.052;8.354;2023-05-16T12:23:14;100931.00;;;18.80
16956;BMP180;8594;52.052;8.354;2023-05-16T12:25:45;100938.00;;;18.70
16956;BMP180;8594;52.052;8.354;2023-05-16T12:28:14;100947.00;;;19.80
16956;BMP180;8594;52.052;8.354;2023-05-16T12:30:43;100948.00;;;19.60
16956;BMP180;8594;52.052;8.354;2023-05-16T12:33:14;100935.00;;;20.40
16956;BMP180;8594;52.052;8.354;2023-05-16T12:35:44;100949.00;;;20.40
16956;BMP180;8594;52.052;8.354;2023-05-16T12:38:14;100942.00;;;20.30
16956;BMP180;8594;52.052;8.354;2023-05-16T12:40:43;100945.00;;;19.20
16956;BMP180;8594;52.052;8.354;2023-05-16T12:43:13;100932.00;;;19.30
16956;BMP180;8594;52.052;8.354;2023-05-16T12:45:41;100924.00;;;19.90
16956;BMP180;8594;52.052;8.354;2023-05-16T12:48:12;100928.00;;;20.10
16956;BMP180;8594;52.052;8.354;2023-05-16T12:50:40;100927.00;;;19.60
16956;BMP180;8594;52.052;8.354;2023-05-16T12:53:11;100933.00;;;20.50
16956;BMP180;8594;52.052;8.354;2023-05-16T12:58:39;100938.00;;;21.20
16956;BMP180;8594;52.052;8.354;2023-05-16T13:01:27;100930.00;;;20.30
16956;BMP180;8594;52.052;8.354;2023-05-16T13:04:11;100938.00;;;21.30
16956;BMP180;8594;52.052;8.354;2023-05-16T13:06:58;100937.00;;;20.70
16956;BMP180;8594;52.052;8.354;2023-05-16T13:09:30;100935.00;;;20.20
16956;BMP180;8594;52.052;8.354;2023-05-16T13:12:06;100935.00;;;20.00
16956;BMP180;8594;52.052;8.354;2023-05-16T13:14:49;100933.00;;;20.80
16956;BMP180;8594;52.052;8.354;2023-05-16T13:17:34;100934.00;;;21.60
16956;BMP180;8594;52.052;8.354;2023-05-16T13:20:13;100950.00;;;21.40
16956;BMP180;8594;52.052;8.354;2023-05-16T13:22:43;100946.00;;;20.00
16956;BMP180;8594;52.052;8.354;2023-05-16T13:25:24;100942.00;;;20.40
16956;BMP180;8594;52.052;8.354;2023-05-16T13:28:08;100953.00;;;19.50
16956;BMP180;8594;52.052;8.354;2023-05-16T13:30:43;100961.00;;;19.70
16956;BMP180;8594;52.052;8.354;2023-05-16T13:33:26;100959.00;;;19.40
16956;BMP180;8594;52.052;8.354;2023-05-16T13:35:55;100967.00;;;18.90
16956;BMP180;8594;52.052;8.354;2023-05-16T13:38:23;100964.00;;;19.20
16956;BMP180;8594;52.052;8.354;2023-05-16T13:40:52;100974.00;;;18.90
16956;BMP180;8594;52.052;8.354;2023-05-16T13:43:25;100961.00;;;18.30
16956;BMP180;8594;52.052;8.354;2023-05-16T13:45:53;100976.00;;;19.10
16956;BMP180;8594;52.052;8.354;2023-05-16T13:48:23;100989.00;;;19.10
16956;BMP180;8594;52.052;8.354;2023-05-16T13:50:58;100979.00;;;18.90
16956;BMP180;8594;52.052;8.354;2023-05-16T13:53:43;100975.00;;;19.60
16956;BMP180;8594;52.052;8.354;2023-05-16T13:56:11;100986.00;;;20.20
16956;BMP180;8594;52.052;8.354;2023-05-16T13:58:39;100979.00;;;19.60
16956;BMP180;8594;52.052;8.354;2023-05-16T14:01:06;100983.00;;;19.70
16956;BMP180;8594;52.052;8.354;2023-05-16T14:03:33;100985.00;;;19.40
16956;BMP180;8594;52.052;8.354;2023-05-16T14:06:01;100989.00;;;19.70
16956;BMP180;8594;52.052;8.354;2023-05-16T14:08:29;100969.00;;;19.80
16956;BMP180;8594;52.052;8.354;2023-05-16T14:10:55;100969.00;;;19.80
16956;BMP180;8594;52.052;8.354;2023-05-16T14:13:22;100976.00;;;20.60
16956;BMP180;8594;52.052;8.354;2023-05-16T14:15:50;100972.00;;;20.20
16956;BMP180;8594;52.052;8.354;2023-05-16T14:18:17;100982.00;;;20.10
16956;BMP180;8594;52.052;8.354;2023-05-16T14:20:44;100986.00;;;20.00
16956;BMP180;8594;52.052;8.354;2023-05-16T14:23:11;100987.00;;;20.50